• Join FlightAware (Why Join?)
  • Login
  • US Flag 
02:09PM EDT


 

Airport Tracker/Info


-or-


 

Live Flight TrackerFlight Track Log ✈ UAL3841 ✈ 03-May-2013 ✈ KEWR - KMHT

Flight Track Log - Related Links

Times and Time Zones

All times are in EDT time to prevent confusion due to time zone crossing. See the UAL3841 flight status page for this flight to view local times or setup timezone preferences in your user account.

Time Position Orientation Groundspeed Altitude Reporting Facility
EDT Latitude Longitude Course Direction KTS MPH feet Rate Location/Type
02:27PM 40.6667 -74.1833 40° Northeast 178 205 1,400  Level New York TRACON
02:28PM 40.6000 -74.2167 201° Southwest 239 275 3,400 1,800 Climbing New York TRACON
02:29PM 40.8835 -73.9416 21° North  Level FlightAware Approximate
02:29PM 40.6167 -74.3000 285° West 280 322 5,300  Level New York TRACON
02:30PM 40.9482 -73.8685 37° Northeast  Level FlightAware Approximate
02:30PM 40.7000 -74.2667 17° North 252 290 6,100  Level New York TRACON
02:31PM 41.0196 -73.7946 40° Northeast  Level FlightAware Approximate
02:31PM 40.7500 -74.2167 37° Northeast 259 298 8,300  Level New York TRACON
02:32PM 41.0887 -73.7169 40° Northeast  Level FlightAware Approximate
02:32PM 40.8000 -74.1500 45° Northeast 279 321 10,100  Level New York TRACON
02:33PM 40.8500 -74.0500 57° Northeast 332 382 10,100 180 Level New York TRACON
02:35PM 40.9447 -73.8883 52° Northeast 337 388 10,700 780 Climbing Boston Center
02:36PM 41.0064 -73.7822 52° Northeast 326 375 12,400 1,500 Climbing Boston Center
02:37PM 41.0825 -73.7039 38° Northeast 331 381 13,700 1,380 Climbing Boston Center
02:38PM 41.1625 -73.6283 35° Northeast 345 397 15,200 1,440 Climbing Boston Center
02:39PM 41.2342 -73.5553 37° Northeast 350 403 16,600 1,380 Climbing Boston Center
02:40PM 41.3183 -73.4711 37° Northeast 350 403 18,000 1,140 Climbing Boston Center
02:41PM 41.3917 -73.4003 36° Northeast 350 403 18,900 420 Climbing Boston Center
02:42PM 41.4778 -73.3239 34° Northeast 358 412 18,900  Level Boston Center
02:43PM 41.5786 -73.2450 30° Northeast 377 434 19,000  Climbing Boston Center
02:44PM 41.6644 -73.1792 30° Northeast 384 442 19,000 -420 Level Boston Center
02:45PM 41.7628 -73.0831 36° Northeast 374 430 18,200 -840 Descending Boston Center
02:46PM 41.8428 -72.9722 46° Northeast 367 422 17,400 -660 Descending Boston Center
02:47PM 41.9286 -72.8950 34° Northeast 367 422 16,900 -540 Descending Boston Center